sensor_id;sensor_type;location;lat;lon;timestamp;temperature;humidity
78522;SHT31;67819;51.972;5.678;2023-05-07T00:01:13;16.8;74.2
78522;SHT31;67819;51.972;5.678;2023-05-07T00:03:42;16.8;74.1
78522;SHT31;67819;51.972;5.678;2023-05-07T00:06:10;16.8;74.1
78522;SHT31;67819;51.972;5.678;2023-05-07T00:08:39;16.8;74.4
78522;SHT31;67819;51.972;5.678;2023-05-07T00:11:08;16.8;75.0
78522;SHT31;67819;51.972;5.678;2023-05-07T00:13:36;16.8;74.8
78522;SHT31;67819;51.972;5.678;2023-05-07T00:16:05;16.8;73.9
78522;SHT31;67819;51.972;5.678;2023-05-07T00:18:34;16.8;73.7
78522;SHT31;67819;51.972;5.678;2023-05-07T00:21:05;16.8;75.0
78522;SHT31;67819;51.972;5.678;2023-05-07T00:23:33;16.9;74.0
78522;SHT31;67819;51.972;5.678;2023-05-07T00:26:02;16.9;73.7
78522;SHT31;67819;51.972;5.678;2023-05-07T00:28:31;16.9;74.2
78522;SHT31;67819;51.972;5.678;2023-05-07T00:30:59;16.8;73.8
78522;SHT31;67819;51.972;5.678;2023-05-07T00:33:28;16.8;73.9
78522;SHT31;67819;51.972;5.678;2023-05-07T00:35:58;16.8;73.9
78522;SHT31;67819;51.972;5.678;2023-05-07T00:38:28;16.8;73.7
78522;SHT31;67819;51.972;5.678;2023-05-07T00:40:57;16.8;73.7
78522;SHT31;67819;51.972;5.678;2023-05-07T00:43:25;16.7;73.5
78522;SHT31;67819;51.972;5.678;2023-05-07T00:45:54;16.7;74.0
78522;SHT31;67819;51.972;5.678;2023-05-07T00:48:26;16.7;74.1
78522;SHT31;67819;51.972;5.678;2023-05-07T00:50:56;16.6;74.0
78522;SHT31;67819;51.972;5.678;2023-05-07T00:53:25;16.6;74.2
78522;SHT31;67819;51.972;5.678;2023-05-07T00:55:55;16.6;74.3
78522;SHT31;67819;51.972;5.678;2023-05-07T00:58:24;16.6;74.2
78522;SHT31;67819;51.972;5.678;2023-05-07T01:00:53;16.6;74.8
78522;SHT31;67819;51.972;5.678;2023-05-07T01:03:24;16.6;74.6
78522;SHT31;67819;51.972;5.678;2023-05-07T01:05:54;16.5;74.8
78522;SHT31;67819;51.972;5.678;2023-05-07T01:08:26;16.5;74.2
78522;SHT31;67819;51.972;5.678;2023-05-07T01:10:57;16.5;74.1
78522;SHT31;67819;51.972;5.678;2023-05-07T01:13:27;16.5;74.2
78522;SHT31;67819;51.972;5.678;2023-05-07T01:15:56;16.5;74.2
78522;SHT31;67819;51.972;5.678;2023-05-07T01:18:25;16.5;75.1
78522;SHT31;67819;51.972;5.678;2023-05-07T01:20:56;16.5;74.6
78522;SHT31;67819;51.972;5.678;2023-05-07T01:23:27;16.5;74.9
78522;SHT31;67819;51.972;5.678;2023-05-07T01:25:56;16.6;74.4
78522;SHT31;67819;51.972;5.678;2023-05-07T01:28:25;16.6;74.1
78522;SHT31;67819;51.972;5.678;2023-05-07T01:30:58;16.6;74.2
78522;SHT31;67819;51.972;5.678;2023-05-07T01:33:31;16.6;74.0
78522;SHT31;67819;51.972;5.678;2023-05-07T01:36:03;16.6;74.0
78522;SHT31;67819;51.972;5.678;2023-05-07T01:38:34;16.6;73.9
78522;SHT31;67819;51.972;5.678;2023-05-07T01:41:03;16.6;74.5
78522;SHT31;67819;51.972;5.678;2023-05-07T01:43:35;16.6;74.0
78522;SHT31;67819;51.972;5.678;2023-05-07T01:46:05;16.6;73.7
78522;SHT31;67819;51.972;5.678;2023-05-07T01:48:34;16.6;73.9
78522;SHT31;67819;51.972;5.678;2023-05-07T01:51:06;16.6;73.7
78522;SHT31;67819;51.972;5.678;2023-05-07T01:53:37;16.6;73.7
78522;SHT31;67819;51.972;5.678;2023-05-07T01:56:07;16.7;74.2
78522;SHT31;67819;51.972;5.678;2023-05-07T01:58:36;16.7;73.5
78522;SHT31;67819;51.972;5.678;2023-05-07T02:01:04;16.7;74.1
78522;SHT31;67819;51.972;5.678;2023-05-07T02:03:33;16.7;74.0
78522;SHT31;67819;51.972;5.678;2023-05-07T02:06:02;16.7;73.8
78522;SHT31;67819;51.972;5.678;2023-05-07T02:08:31;16.7;73.7
78522;SHT31;67819;51.972;5.678;2023-05-07T02:10:59;16.7;73.7
78522;SHT31;67819;51.972;5.678;2023-05-07T02:13:31;16.7;73.1
78522;SHT31;67819;51.972;5.678;2023-05-07T02:16:00;16.7;72.8
78522;SHT31;67819;51.972;5.678;2023-05-07T02:18:31;16.7;73.3
78522;SHT31;67819;51.972;5.678;2023-05-07T02:21:00;16.7;73.2
78522;SHT31;67819;51.972;5.678;2023-05-07T02:23:28;16.6;73.1
78522;SHT31;67819;51.972;5.678;2023-05-07T02:25:57;16.6;73.4
78522;SHT31;67819;51.972;5.678;2023-05-07T02:28:25;16.6;73.3
78522;SHT31;67819;51.972;5.678;2023-05-07T02:30:54;16.6;73.3
78522;SHT31;67819;51.972;5.678;2023-05-07T02:33:26;16.6;73.6
78522;SHT31;67819;51.972;5.678;2023-05-07T02:35:55;16.6;73.1
78522;SHT31;67819;51.972;5.678;2023-05-07T02:38:23;16.6;73.2
78522;SHT31;67819;51.972;5.678;2023-05-07T02:40:52;16.6;73.5
78522;SHT31;67819;51.972;5.678;2023-05-07T02:43:20;16.6;73.1
78522;SHT31;67819;51.972;5.678;2023-05-07T02:45:49;16.7;74.2
78522;SHT31;67819;51.972;5.678;2023-05-07T02:48:18;16.7;73.5
78522;SHT31;67819;51.972;5.678;2023-05-07T02:50:46;16.7;73.2
78522;SHT31;67819;51.972;5.678;2023-05-07T02:53:15;16.7;73.1
78522;SHT31;67819;51.972;5.678;2023-05-07T02:55:43;16.7;73.5
78522;SHT31;67819;51.972;5.678;2023-05-07T02:58:12;16.7;73.8
78522;SHT31;67819;51.972;5.678;2023-05-07T03:00:42;16.7;73.8
78522;SHT31;67819;51.972;5.678;2023-05-07T03:03:11;16.6;73.8
78522;SHT31;67819;51.972;5.678;2023-05-07T03:05:39;16.6;73.7
78522;SHT31;67819;51.972;5.678;2023-05-07T03:08:10;16.6;73.5
78522;SHT31;67819;51.972;5.678;2023-05-07T03:10:39;16.6;73.4
78522;SHT31;67819;51.972;5.678;2023-05-07T03:13:08;16.6;73.2
78522;SHT31;67819;51.972;5.678;2023-05-07T03:15:36;16.6;73.6
78522;SHT31;67819;51.972;5.678;2023-05-07T03:18:05;16.6;73.2
78522;SHT31;67819;51.972;5.678;2023-05-07T03:20:34;16.6;72.6
78522;SHT31;67819;51.972;5.678;2023-05-07T03:23:03;16.6;72.6
78522;SHT31;67819;51.972;5.678;2023-05-07T03:25:31;16.5;72.6
78522;SHT31;67819;51.972;5.678;2023-05-07T03:28:02;16.5;73.3
78522;SHT31;67819;51.972;5.678;2023-05-07T03:30:33;16.5;72.7
78522;SHT31;67819;51.972;5.678;2023-05-07T03:33:02;16.5;72.4
78522;SHT31;67819;51.972;5.678;2023-05-07T03:35:31;16.5;72.3
78522;SHT31;67819;51.972;5.678;2023-05-07T03:38:00;16.5;72.7
78522;SHT31;67819;51.972;5.678;2023-05-07T03:40:29;16.5;72.2
78522;SHT31;67819;51.972;5.678;2023-05-07T03:42:59;16.5;72.9
78522;SHT31;67819;51.972;5.678;2023-05-07T03:45:28;16.5;72.2
78522;SHT31;67819;51.972;5.678;2023-05-07T03:47:56;16.5;73.1
78522;SHT31;67819;51.972;5.678;2023-05-07T03:50:25;16.5;72.3
78522;SHT31;67819;51.972;5.678;2023-05-07T03:52:53;16.5;72.8
78522;SHT31;67819;51.972;5.678;2023-05-07T03:55:22;16.4;72.9
78522;SHT31;67819;51.972;5.678;2023-05-07T03:57:51;16.4;72.9
78522;SHT31;67819;51.972;5.678;2023-05-07T04:00:20;16.4;72.8
78522;SHT31;67819;51.972;5.678;2023-05-07T04:02:48;16.4;72.9
78522;SHT31;67819;51.972;5.678;2023-05-07T04:05:17;16.4;73.1
78522;SHT31;67819;51.972;5.678;2023-05-07T04:07:47;16.4;73.6
78522;SHT31;67819;51.972;5.678;2023-05-07T04:10:16;16.4;73.6
78522;SHT31;67819;51.972;5.678;2023-05-07T04:12:45;16.4;74.0
78522;SHT31;67819;51.972;5.678;2023-05-07T04:15:13;16.4;73.5
78522;SHT31;67819;51.972;5.678;2023-05-07T04:17:42;16.4;73.4
78522;SHT31;67819;51.972;5.678;2023-05-07T04:20:14;16.4;73.5
78522;SHT31;67819;51.972;5.678;2023-05-07T04:22:44;16.4;73.5
78522;SHT31;67819;51.972;5.678;2023-05-07T04:25:12;16.4;73.8
78522;SHT31;67819;51.972;5.678;2023-05-07T04:27:43;16.4;74.1
78522;SHT31;67819;51.972;5.678;2023-05-07T04:30:15;16.4;73.6
78522;SHT31;67819;51.972;5.678;2023-05-07T04:32:43;16.4;73.8
78522;SHT31;67819;51.972;5.678;2023-05-07T04:35:12;16.4;73.8
78522;SHT31;67819;51.972;5.678;2023-05-07T04:37:41;16.4;73.9
78522;SHT31;67819;51.972;5.678;2023-05-07T04:40:10;16.4;74.1
78522;SHT31;67819;51.972;5.678;2023-05-07T04:42:38;16.4;74.1
78522;SHT31;67819;51.972;5.678;2023-05-07T04:45:08;16.4;74.0
78522;SHT31;67819;51.972;5.678;2023-05-07T04:47:36;16.4;74.1
78522;SHT31;67819;51.972;5.678;2023-05-07T04:50:06;16.4;74.2
78522;SHT31;67819;51.972;5.678;2023-05-07T04:52:35;16.4;74.3
78522;SHT31;67819;51.972;5.678;2023-05-07T04:55:06;16.4;74.4
78522;SHT31;67819;51.972;5.678;2023-05-07T04:57:36;16.4;74.7
78522;SHT31;67819;51.972;5.678;2023-05-07T05:00:07;16.4;74.5
78522;SHT31;67819;51.972;5.678;2023-05-07T05:02:36;16.3;75.2
78522;SHT31;67819;51.972;5.678;2023-05-07T05:05:05;16.3;75.1
78522;SHT31;67819;51.972;5.678;2023-05-07T05:07:34;16.3;75.4
78522;SHT31;67819;51.972;5.678;2023-05-07T05:10:05;16.3;75.6
78522;SHT31;67819;51.972;5.678;2023-05-07T05:12:34;16.3;75.4
78522;SHT31;67819;51.972;5.678;2023-05-07T05:15:03;16.3;75.6
78522;SHT31;67819;51.972;5.678;2023-05-07T05:17:31;16.3;75.4
78522;SHT31;67819;51.972;5.678;2023-05-07T05:20:01;16.3;75.6
78522;SHT31;67819;51.972;5.678;2023-05-07T05:22:32;16.3;76.1
78522;SHT31;67819;51.972;5.678;2023-05-07T05:25:01;16.3;75.8
78522;SHT31;67819;51.972;5.678;2023-05-07T05:27:29;16.3;75.6
78522;SHT31;67819;51.972;5.678;2023-05-07T05:29:58;16.3;75.8
78522;SHT31;67819;51.972;5.678;2023-05-07T05:32:26;16.3;75.7
78522;SHT31;67819;51.972;5.678;2023-05-07T05:34:55;16.3;75.8
78522;SHT31;67819;51.972;5.678;2023-05-07T05:37:25;16.3;76.0
78522;SHT31;67819;51.972;5.678;2023-05-07T05:39:53;16.3;76.3
78522;SHT31;67819;51.972;5.678;2023-05-07T05:42:23;16.3;76.4
78522;SHT31;67819;51.972;5.678;2023-05-07T05:44:51;16.3;76.8
78522;SHT31;67819;51.972;5.678;2023-05-07T05:47:20;16.3;76.7
78522;SHT31;67819;51.972;5.678;2023-05-07T05:49:49;16.3;76.2
78522;SHT31;67819;51.972;5.678;2023-05-07T05:52:17;16.3;76.3
78522;SHT31;67819;51.972;5.678;2023-05-07T05:54:46;16.3;76.7
78522;SHT31;67819;51.972;5.678;2023-05-07T05:57:17;16.3;76.4
78522;SHT31;67819;51.972;5.678;2023-05-07T05:59:46;16.3;76.1
78522;SHT31;67819;51.972;5.678;2023-05-07T06:02:15;16.3;76.2
78522;SHT31;67819;51.972;5.678;2023-05-07T06:04:44;16.3;76.1
78522;SHT31;67819;51.972;5.678;2023-05-07T06:07:12;16.3;76.2
78522;SHT31;67819;51.972;5.678;2023-05-07T06:09:41;16.3;76.3
78522;SHT31;67819;51.972;5.678;2023-05-07T06:12:09;16.3;76.9
78522;SHT31;67819;51.972;5.678;2023-05-07T06:14:38;16.3;76.5
78522;SHT31;67819;51.972;5.678;2023-05-07T06:17:09;16.4;76.4
78522;SHT31;67819;51.972;5.678;2023-05-07T06:19:37;16.4;76.7
78522;SHT31;67819;51.972;5.678;2023-05-07T06:22:06;16.4;76.7
78522;SHT31;67819;51.972;5.678;2023-05-07T06:24:35;16.5;76.6
78522;SHT31;67819;51.972;5.678;2023-05-07T06:27:04;16.6;76.0
78522;SHT31;67819;51.972;5.678;2023-05-07T06:29:32;16.6;76.7
78522;SHT31;67819;51.972;5.678;2023-05-07T06:32:07;16.7;75.7
78522;SHT31;67819;51.972;5.678;2023-05-07T06:34:37;16.7;75.7
78522;SHT31;67819;51.972;5.678;2023-05-07T06:37:07;16.7;75.5
78522;SHT31;67819;51.972;5.678;2023-05-07T06:39:35;16.8;75.9
78522;SHT31;67819;51.972;5.678;2023-05-07T06:42:04;16.8;75.6
78522;SHT31;67819;51.972;5.678;2023-05-07T06:44:32;16.9;75.5
78522;SHT31;67819;51.972;5.678;2023-05-07T06:47:01;16.9;74.7
78522;SHT31;67819;51.972;5.678;2023-05-07T06:49:30;16.9;74.9
78522;SHT31;67819;51.972;5.678;2023-05-07T06:51:59;16.9;74.4
78522;SHT31;67819;51.972;5.678;2023-05-07T06:54:28;17.0;74.7
78522;SHT31;67819;51.972;5.678;2023-05-07T06:56:57;17.0;75.1
78522;SHT31;67819;51.972;5.678;2023-05-07T06:59:26;17.0;75.3
78522;SHT31;67819;51.972;5.678;2023-05-07T07:01:54;17.1;75.0
78522;SHT31;67819;51.972;5.678;2023-05-07T07:04:25;17.1;74.2
78522;SHT31;67819;51.972;5.678;2023-05-07T07:06:54;17.1;74.5
78522;SHT31;67819;51.972;5.678;2023-05-07T07:09:23;17.2;74.9
78522;SHT31;67819;51.972;5.678;2023-05-07T07:11:54;17.2;74.3
78522;SHT31;67819;51.972;5.678;2023-05-07T07:14:22;17.2;74.1
78522;SHT31;67819;51.972;5.678;2023-05-07T07:16:51;17.3;74.0
78522;SHT31;67819;51.972;5.678;2023-05-07T07:19:19;17.3;74.1
78522;SHT31;67819;51.972;5.678;2023-05-07T07:21:48;17.3;73.6
78522;SHT31;67819;51.972;5.678;2023-05-07T07:24:17;17.4;74.2
78522;SHT31;67819;51.972;5.678;2023-05-07T07:26:47;17.4;73.7
78522;SHT31;67819;51.972;5.678;2023-05-07T07:29:16;17.4;73.9
78522;SHT31;67819;51.972;5.678;2023-05-07T07:31:45;17.5;74.2
78522;SHT31;67819;51.972;5.678;2023-05-07T07:34:13;17.5;75.1
78522;SHT31;67819;51.972;5.678;2023-05-07T07:36:42;17.5;74.9
78522;SHT31;67819;51.972;5.678;2023-05-07T07:39:12;17.6;75.0
78522;SHT31;67819;51.972;5.678;2023-05-07T07:41:41;17.6;74.8
78522;SHT31;67819;51.972;5.678;2023-05-07T07:44:09;17.6;74.1
78522;SHT31;67819;51.972;5.678;2023-05-07T07:46:39;17.7;74.3
78522;SHT31;67819;51.972;5.678;2023-05-07T07:49:08;17.7;74.2
78522;SHT31;67819;51.972;5.678;2023-05-07T07:51:36;17.7;73.6
78522;SHT31;67819;51.972;5.678;2023-05-07T07:54:05;17.7;73.8
78522;SHT31;67819;51.972;5.678;2023-05-07T07:56:34;17.7;73.9
78522;SHT31;67819;51.972;5.678;2023-05-07T07:59:05;17.8;74.1
78522;SHT31;67819;51.972;5.678;2023-05-07T08:01:35;17.8;75.3
78522;SHT31;67819;51.972;5.678;2023-05-07T08:04:04;17.9;73.8
78522;SHT31;67819;51.972;5.678;2023-05-07T08:06:33;17.9;74.5
78522;SHT31;67819;51.972;5.678;2023-05-07T08:09:02;18.0;73.8
78522;SHT31;67819;51.972;5.678;2023-05-07T08:11:32;18.0;73.9
78522;SHT31;67819;51.972;5.678;2023-05-07T08:14:01;18.0;74.4
78522;SHT31;67819;51.972;5.678;2023-05-07T08:16:30;18.1;73.8
78522;SHT31;67819;51.972;5.678;2023-05-07T08:18:59;18.1;73.0
78522;SHT31;67819;51.972;5.678;2023-05-07T08:21:27;18.2;73.5
78522;SHT31;67819;51.972;5.678;2023-05-07T08:23:57;18.2;72.5
78522;SHT31;67819;51.972;5.678;2023-05-07T08:26:25;18.3;71.7
78522;SHT31;67819;51.972;5.678;2023-05-07T08:28:54;18.3;71.8
78522;SHT31;67819;51.972;5.678;2023-05-07T08:31:23;18.3;71.0
78522;SHT31;67819;51.972;5.678;2023-05-07T08:33:51;18.4;70.8
78522;SHT31;67819;51.972;5.678;2023-05-07T08:36:20;18.4;70.3
78522;SHT31;67819;51.972;5.678;2023-05-07T08:38:49;18.4;71.3
78522;SHT31;67819;51.972;5.678;2023-05-07T08:41:17;18.4;71.2
78522;SHT31;67819;51.972;5.678;2023-05-07T08:43:48;18.5;71.3
78522;SHT31;67819;51.972;5.678;2023-05-07T08:46:19;18.5;71.6
78522;SHT31;67819;51.972;5.678;2023-05-07T08:48:50;18.5;71.1
78522;SHT31;67819;51.972;5.678;2023-05-07T08:51:20;18.6;71.7
78522;SHT31;67819;51.972;5.678;2023-05-07T08:53:50;18.6;70.6
78522;SHT31;67819;51.972;5.678;2023-05-07T08:56:18;18.7;70.4
78522;SHT31;67819;51.972;5.678;2023-05-07T08:58:48;18.8;70.6
78522;SHT31;67819;51.972;5.678;2023-05-07T09:01:17;18.8;70.4
78522;SHT31;67819;51.972;5.678;2023-05-07T09:03:46;18.9;68.9
78522;SHT31;67819;51.972;5.678;2023-05-07T09:06:16;19.0;69.4
78522;SHT31;67819;51.972;5.678;2023-05-07T09:08:49;19.0;69.3
78522;SHT31;67819;51.972;5.678;2023-05-07T09:11:19;19.1;68.5
78522;SHT31;67819;51.972;5.678;2023-05-07T09:13:48;19.1;68.2
78522;SHT31;67819;51.972;5.678;2023-05-07T09:16:17;19.2;66.8
78522;SHT31;67819;51.972;5.678;2023-05-07T09:18:46;19.2;68.2
78522;SHT31;67819;51.972;5.678;2023-05-07T09:21:17;19.3;67.4
78522;SHT31;67819;51.972;5.678;2023-05-07T09:23:47;19.3;68.0
78522;SHT31;67819;51.972;5.678;2023-05-07T09:26:16;19.4;65.4
78522;SHT31;67819;51.972;5.678;2023-05-07T09:28:45;19.4;66.3
78522;SHT31;67819;51.972;5.678;2023-05-07T09:31:13;19.5;65.2
78522;SHT31;67819;51.972;5.678;2023-05-07T09:33:42;19.5;64.4
78522;SHT31;67819;51.972;5.678;2023-05-07T09:36:10;19.5;64.9
78522;SHT31;67819;51.972;5.678;2023-05-07T09:38:40;19.6;64.7
78522;SHT31;67819;51.972;5.678;2023-05-07T09:41:10;19.6;64.5
78522;SHT31;67819;51.972;5.678;2023-05-07T09:43:40;19.6;65.3
78522;SHT31;67819;51.972;5.678;2023-05-07T09:46:13;19.7;65.3
78522;SHT31;67819;51.972;5.678;2023-05-07T09:48:44;19.7;65.4
78522;SHT31;67819;51.972;5.678;2023-05-07T09:51:22;19.8;66.2
78522;SHT31;67819;51.972;5.678;2023-05-07T09:53:53;19.9;63.9
78522;SHT31;67819;51.972;5.678;2023-05-07T09:56:22;19.9;65.3
78522;SHT31;67819;51.972;5.678;2023-05-07T09:58:54;20.0;63.8
78522;SHT31;67819;51.972;5.678;2023-05-07T10:01:25;20.1;63.1
78522;SHT31;67819;51.972;5.678;2023-05-07T10:03:56;20.2;63.9
78522;SHT31;67819;51.972;5.678;2023-05-07T10:06:26;20.3;61.8
78522;SHT31;67819;51.972;5.678;2023-05-07T10:08:56;20.3;61.9
78522;SHT31;67819;51.972;5.678;2023-05-07T10:11:25;20.4;60.5
78522;SHT31;67819;51.972;5.678;2023-05-07T10:13:54;20.4;60.5
78522;SHT31;67819;51.972;5.678;2023-05-07T10:16:23;20.5;59.7
78522;SHT31;67819;51.972;5.678;2023-05-07T10:18:54;20.5;60.2
78522;SHT31;67819;51.972;5.678;2023-05-07T10:21:24;20.5;60.3
78522;SHT31;67819;51.972;5.678;2023-05-07T10:23:58;20.6;60.5
78522;SHT31;67819;51.972;5.678;2023-05-07T10:26:30;20.6;61.2
78522;SHT31;67819;51.972;5.678;2023-05-07T10:29:07;20.6;60.0
78522;SHT31;67819;51.972;5.678;2023-05-07T10:31:55;20.6;60.6
78522;SHT31;67819;51.972;5.678;2023-05-07T10:34:36;20.7;61.0
78522;SHT31;67819;51.972;5.678;2023-05-07T10:37:04;20.7;60.9
78522;SHT31;67819;51.972;5.678;2023-05-07T10:39:33;20.7;61.4
78522;SHT31;67819;51.972;5.678;2023-05-07T10:42:13;20.7;60.5
78522;SHT31;67819;51.972;5.678;2023-05-07T10:44:42;20.8;61.4
78522;SHT31;67819;51.972;5.678;2023-05-07T10:47:12;20.8;62.5
78522;SHT31;67819;51.972;5.678;2023-05-07T10:52:45;21.0;60.0
78522;SHT31;67819;51.972;5.678;2023-05-07T10:55:22;21.0;59.4
78522;SHT31;67819;51.972;5.678;2023-05-07T10:57:52;21.1;60.5
78522;SHT31;67819;51.972;5.678;2023-05-07T11:00:45;21.1;58.9
78522;SHT31;67819;51.972;5.678;2023-05-07T11:03:13;21.2;60.2
78522;SHT31;67819;51.972;5.678;2023-05-07T11:05:42;21.3;59.3
78522;SHT31;67819;51.972;5.678;2023-05-07T11:08:14;21.4;58.9
78522;SHT31;67819;51.972;5.678;2023-05-07T11:10:54;21.5;58.7
78522;SHT31;67819;51.972;5.678;2023-05-07T11:13:44;21.6;58.7
78522;SHT31;67819;51.972;5.678;2023-05-07T11:16:20;21.7;58.0
78522;SHT31;67819;51.972;5.678;2023-05-07T11:18:50;21.8;56.7
78522;SHT31;67819;51.972;5.678;2023-05-07T11:21:38;21.9;57.0
78522;SHT31;67819;51.972;5.678;2023-05-07T11:24:08;21.9;57.4
78522;SHT31;67819;51.972;5.678;2023-05-07T11:26:48;22.0;56.6
78522;SHT31;67819;51.972;5.678;2023-05-07T11:29:19;22.1;56.1
78522;SHT31;67819;51.972;5.678;2023-05-07T11:31:53;22.1;56.5
78522;SHT31;67819;51.972;5.678;2023-05-07T11:34:25;22.2;55.2
78522;SHT31;67819;51.972;5.678;2023-05-07T11:36:55;22.3;55.5
78522;SHT31;67819;51.972;5.678;2023-05-07T11:39:32;22.3;53.6
78522;SHT31;67819;51.972;5.678;2023-05-07T11:42:02;22.4;55.2
78522;SHT31;67819;51.972;5.678;2023-05-07T11:44:43;22.4;56.0
78522;SHT31;67819;51.972;5.678;2023-05-07T11:47:18;22.4;55.7
78522;SHT31;67819;51.972;5.678;2023-05-07T11:49:49;22.4;56.9
78522;SHT31;67819;51.972;5.678;2023-05-07T11:52:19;22.4;56.6
78522;SHT31;67819;51.972;5.678;2023-05-07T11:54:51;22.5;57.3
78522;SHT31;67819;51.972;5.678;2023-05-07T11:57:21;22.5;57.7
78522;SHT31;67819;51.972;5.678;2023-05-07T11:59:54;22.5;57.0
78522;SHT31;67819;51.972;5.678;2023-05-07T12:02:24;22.6;56.0
78522;SHT31;67819;51.972;5.678;2023-05-07T12:04:54;22.6;56.6
78522;SHT31;67819;51.972;5.678;2023-05-07T12:07:24;22.6;56.0
78522;SHT31;67819;51.972;5.678;2023-05-07T12:09:53;22.7;55.8
78522;SHT31;67819;51.972;5.678;2023-05-07T12:12:24;22.7;55.6
78522;SHT31;67819;51.972;5.678;2023-05-07T12:14:55;22.7;54.2
78522;SHT31;67819;51.972;5.678;2023-05-07T12:17:24;22.7;55.5
78522;SHT31;67819;51.972;5.678;2023-05-07T12:19:52;22.7;54.7
78522;SHT31;67819;51.972;5.678;2023-05-07T12:22:22;22.8;57.0
78522;SHT31;67819;51.972;5.678;2023-05-07T12:24:58;22.8;55.0
78522;SHT31;67819;51.972;5.678;2023-05-07T12:27:27;22.9;53.8
78522;SHT31;67819;51.972;5.678;2023-05-07T12:29:57;23.0;53.2
78522;SHT31;67819;51.972;5.678;2023-05-07T12:32:27;23.1;53.8
78522;SHT31;67819;51.972;5.678;2023-05-07T12:34:55;23.2;52.3
78522;SHT31;67819;51.972;5.678;2023-05-07T12:37:25;23.4;53.1
78522;SHT31;67819;51.972;5.678;2023-05-07T12:40:06;23.5;52.9
78522;SHT31;67819;51.972;5.678;2023-05-07T12:42:36;23.7;52.8
78522;SHT31;67819;51.972;5.678;2023-05-07T12:45:12;23.8;52.3
78522;SHT31;67819;51.972;5.678;2023-05-07T12:47:45;23.9;52.5
78522;SHT31;67819;51.972;5.678;2023-05-07T12:50:15;24.0;51.4
78522;SHT31;67819;51.972;5.678;2023-05-07T12:52:47;24.0;53.0
78522;SHT31;67819;51.972;5.678;2023-05-07T12:55:16;24.1;50.8
78522;SHT31;67819;51.972;5.678;2023-05-07T12:57:48;24.1;52.0
78522;SHT31;67819;51.972;5.678;2023-05-07T13:00:42;24.1;51.4
78522;SHT31;67819;51.972;5.678;2023-05-07T13:03:12;24.1;50.5
78522;SHT31;67819;51.972;5.678;2023-05-07T13:05:40;24.1;50.9
78522;SHT31;67819;51.972;5.678;2023-05-07T13:08:09;24.1;50.0
78522;SHT31;67819;51.972;5.678;2023-05-07T13:10:38;24.0;51.2
78522;SHT31;67819;51.972;5.678;2023-05-07T13:13:06;24.0;51.2
78522;SHT31;67819;51.972;5.678;2023-05-07T13:15:35;23.9;51.5
78522;SHT31;67819;51.972;5.678;2023-05-07T13:18:04;23.9;52.2
78522;SHT31;67819;51.972;5.678;2023-05-07T13:20:33;23.9;51.6
78522;SHT31;67819;51.972;5.678;2023-05-07T13:23:01;23.8;52.8
78522;SHT31;67819;51.972;5.678;2023-05-07T13:25:31;23.8;52.4
78522;SHT31;67819;51.972;5.678;2023-05-07T13:27:59;23.9;52.1
78522;SHT31;67819;51.972;5.678;2023-05-07T13:30:29;23.9;50.2
78522;SHT31;67819;51.972;5.678;2023-05-07T13:32:57;24.0;50.1
78522;SHT31;67819;51.972;5.678;2023-05-07T13:35:26;24.0;48.8
78522;SHT31;67819;51.972;5.678;2023-05-07T13:37:55;24.0;51.2
78522;SHT31;67819;51.972;5.678;2023-05-07T13:40:24;24.1;51.1
78522;SHT31;67819;51.972;5.678;2023-05-07T13:42:53;24.2;51.1
78522;SHT31;67819;51.972;5.678;2023-05-07T13:45:22;24.3;51.5
78522;SHT31;67819;51.972;5.678;2023-05-07T13:47:54;24.5;49.7
78522;SHT31;67819;51.972;5.678;2023-05-07T13:50:22;24.7;50.4
78522;SHT31;67819;51.972;5.678;2023-05-07T13:52:53;24.9;47.3
78522;SHT31;67819;51.972;5.678;2023-05-07T13:55:23;25.0;45.8
78522;SHT31;67819;51.972;5.678;2023-05-07T13:57:56;25.1;47.2
78522;SHT31;67819;51.972;5.678;2023-05-07T14:00:26;25.1;47.4
78522;SHT31;67819;51.972;5.678;2023-05-07T14:02:55;25.0;48.3
78522;SHT31;67819;51.972;5.678;2023-05-07T14:05:24;25.0;48.1
78522;SHT31;67819;51.972;5.678;2023-05-07T14:07:55;24.9;48.5
78522;SHT31;67819;51.972;5.678;2023-05-07T14:10:25;24.9;50.2
78522;SHT31;67819;51.972;5.678;2023-05-07T14:12:53;24.8;49.8
78522;SHT31;67819;51.972;5.678;2023-05-07T14:15:22;24.8;50.7
78522;SHT31;67819;51.972;5.678;2023-05-07T14:17:51;24.8;49.0
78522;SHT31;67819;51.972;5.678;2023-05-07T14:20:20;24.7;50.2
78522;SHT31;67819;51.972;5.678;2023-05-07T14:22:49;24.7;49.3
78522;SHT31;67819;51.972;5.678;2023-05-07T14:25:17;24.6;48.7
78522;SHT31;67819;51.972;5.678;2023-05-07T14:27:46;24.6;49.5
78522;SHT31;67819;51.972;5.678;2023-05-07T14:30:14;24.5;49.2
78522;SHT31;67819;51.972;5.678;2023-05-07T14:32:43;24.4;49.5
78522;SHT31;67819;51.972;5.678;2023-05-07T14:35:12;24.3;49.6
78522;SHT31;67819;51.972;5.678;2023-05-07T14:37:40;24.3;51.6
78522;SHT31;67819;51.972;5.678;2023-05-07T14:40:10;24.2;50.5
78522;SHT31;67819;51.972;5.678;2023-05-07T14:42:39;24.2;50.4
78522;SHT31;67819;51.972;5.678;2023-05-07T14:45:08;24.2;52.0
78522;SHT31;67819;51.972;5.678;2023-05-07T14:47:37;24.1;50.1
78522;SHT31;67819;51.972;5.678;2023-05-07T14:50:06;24.1;51.4
78522;SHT31;67819;51.972;5.678;2023-05-07T14:52:34;24.1;50.9
78522;SHT31;67819;51.972;5.678;2023-05-07T14:55:03;24.1;50.2
78522;SHT31;67819;51.972;5.678;2023-05-07T14:57:32;24.1;50.6
78522;SHT31;67819;51.972;5.678;2023-05-07T15:00:01;24.0;50.1
78522;SHT31;67819;51.972;5.678;2023-05-07T15:02:34;24.0;50.1
78522;SHT31;67819;51.972;5.678;2023-05-07T15:05:02;24.0;50.5
78522;SHT31;67819;51.972;5.678;2023-05-07T15:07:31;23.9;50.6
78522;SHT31;67819;51.972;5.678;2023-05-07T15:10:00;23.9;51.4
78522;SHT31;67819;51.972;5.678;2023-05-07T15:12:29;23.8;51.2
78522;SHT31;67819;51.972;5.678;2023-05-07T15:14:57;23.8;52.3
78522;SHT31;67819;51.972;5.678;2023-05-07T15:17:26;23.7;50.7
78522;SHT31;67819;51.972;5.678;2023-05-07T15:19:55;23.6;49.8
78522;SHT31;67819;51.972;5.678;2023-05-07T15:22:23;23.4;50.8
78522;SHT31;67819;51.972;5.678;2023-05-07T15:24:52;23.2;51.7
78522;SHT31;67819;51.972;5.678;2023-05-07T15:27:21;22.9;52.5
78522;SHT31;67819;51.972;5.678;2023-05-07T15:29:50;22.7;52.5
78522;SHT31;67819;51.972;5.678;2023-05-07T15:32:18;22.5;51.9
78522;SHT31;67819;51.972;5.678;2023-05-07T15:34:47;22.2;52.2
78522;SHT31;67819;51.972;5.678;2023-05-07T15:37:17;21.9;53.0
78522;SHT31;67819;51.972;5.678;2023-05-07T15:39:46;21.6;53.8
78522;SHT31;67819;51.972;5.678;2023-05-07T15:42:15;21.4;55.1
78522;SHT31;67819;51.972;5.678;2023-05-07T15:44:43;21.2;57.2
78522;SHT31;67819;51.972;5.678;2023-05-07T15:47:12;21.0;59.8
78522;SHT31;67819;51.972;5.678;2023-05-07T15:49:42;20.7;62.3
78522;SHT31;67819;51.972;5.678;2023-05-07T15:52:10;20.5;64.4
78522;SHT31;67819;51.972;5.678;2023-05-07T15:54:40;20.2;66.6
78522;SHT31;67819;51.972;5.678;2023-05-07T15:57:08;19.9;67.6
78522;SHT31;67819;51.972;5.678;2023-05-07T15:59:37;19.5;69.4
78522;SHT31;67819;51.972;5.678;2023-05-07T16:02:06;19.2;70.5
78522;SHT31;67819;51.972;5.678;2023-05-07T16:04:35;18.9;71.8
78522;SHT31;67819;51.972;5.678;2023-05-07T16:07:04;18.7;72.7
78522;SHT31;67819;51.972;5.678;2023-05-07T16:09:33;18.6;71.0
78522;SHT31;67819;51.972;5.678;2023-05-07T16:12:02;18.4;71.8
78522;SHT31;67819;51.972;5.678;2023-05-07T16:14:31;18.3;73.0
78522;SHT31;67819;51.972;5.678;2023-05-07T16:16:59;18.2;74.3
78522;SHT31;67819;51.972;5.678;2023-05-07T16:19:28;18.0;75.6
78522;SHT31;67819;51.972;5.678;2023-05-07T16:21:57;17.9;75.5